Time;durP1;ratioP1;P1;durP2;ratioP2;P2;SDS_P1;SDS_P2;PMS_P1;PMS_P2;Temp;Humidity;BMP_temperature;BMP_pressure;BME280_temperature;BME280_humidity;BME280_pressure;Samples;Min_cycle;Max_cycle;Signal;HPM_P1;HPM_P2
2024/04/05 00:00:13;;;;;;;6.70;5.23;;;;;;;11.61;85.24;96235.50;4984731;28;20185;-69
2024/04/05 00:02:41;;;;;;;6.43;5.43;;;;;;;11.56;85.58;96241.00;4982769;28;20213;-69
2024/04/05 00:05:09;;;;;;;6.67;4.90;;;;;;;11.63;84.76;96237.13;4976383;28;20678;-69
2024/04/05 00:07:36;;;;;;;6.70;4.70;;;;;;;11.79;83.75;96236.38;4969558;28;20496;-71
2024/04/05 00:10:01;;;;;;;10.70;6.10;;;;;;;11.99;83.28;96241.47;4968331;28;20472;-69
2024/04/05 00:12:27;;;;;;;5.97;4.90;;;;;;;12.06;83.00;96240.22;4968344;28;20453;-69
2024/04/05 00:14:52;;;;;;;12.23;5.13;;;;;;;12.10;82.58;96237.44;4968294;28;20185;-68
2024/04/05 00:17:18;;;;;;;8.50;5.70;;;;;;;12.18;82.06;96245.75;4964139;28;20229;-68
2024/04/05 00:19:43;;;;;;;5.60;5.00;;;;;;;12.05;82.09;96230.63;4968704;28;20178;-70
2024/04/05 00:22:09;;;;;;;7.83;5.23;;;;;;;12.07;82.27;96239.28;4968304;28;20712;-68
2024/04/05 00:24:34;;;;;;;10.60;4.73;;;;;;;12.17;81.77;96237.03;4967072;28;20196;-71
2024/04/05 00:26:59;;;;;;;6.20;4.83;;;;;;;12.18;81.61;96238.72;4968399;28;20177;-68
2024/04/05 00:29:25;;;;;;;5.70;4.80;;;;;;;12.10;81.11;96251.44;4967555;28;21039;-69
2024/04/05 00:31:50;;;;;;;7.70;4.50;;;;;;;12.13;81.55;96250.41;4968059;28;20201;-67
2024/04/05 00:34:16;;;;;;;6.57;4.97;;;;;;;12.18;81.70;96245.75;4966911;28;20277;-68
2024/04/05 00:36:41;;;;;;;6.13;4.53;;;;;;;12.17;80.74;96239.66;4968393;28;20578;-68
2024/04/05 00:39:06;;;;;;;9.63;4.93;;;;;;;12.22;80.96;96235.00;4968357;28;20226;-69
2024/04/05 00:41:32;;;;;;;12.23;6.50;;;;;;;12.14;81.41;96234.56;4967176;28;20275;-68
2024/04/05 00:43:57;;;;;;;8.03;4.60;;;;;;;12.03;83.08;96227.22;4968151;28;20177;-68
2024/04/05 00:46:23;;;;;;;5.90;4.60;;;;;;;12.10;82.21;96226.91;4962182;28;20284;-70
2024/04/05 00:48:49;;;;;;;6.03;5.03;;;;;;;12.16;81.87;96234.47;4953420;28;20941;-68
2024/04/05 00:51:14;;;;;;;8.93;5.33;;;;;;;12.16;81.50;96229.22;4969597;28;20193;-71
2024/04/05 00:53:40;;;;;;;11.50;5.23;;;;;;;12.29;81.31;96231.09;4969284;28;20169;-70
2024/04/05 00:56:07;;;;;;;11.43;5.70;;;;;;;12.18;80.85;96237.88;4969759;28;20312;-69
2024/04/05 00:58:33;;;;;;;8.80;5.70;;;;;;;12.14;82.23;96228.44;4968317;28;20178;-69
2024/04/05 01:00:58;;;;;;;8.80;5.50;;;;;;;12.06;82.09;96227.06;4966751;28;21001;-71
2024/04/05 01:03:24;;;;;;;6.00;5.30;;;;;;;12.14;81.50;96229.31;4969047;28;20435;-68
2024/04/05 01:05:50;;;;;;;7.47;5.03;;;;;;;12.14;81.88;96228.44;4969500;28;20173;-68
2024/04/05 01:08:19;;;;;;;7.87;5.47;;;;;;;12.11;81.74;96236.50;4969205;28;20606;-68
2024/04/05 01:10:45;;;;;;;8.60;5.63;;;;;;;12.16;82.66;96239.72;4967737;28;20471;-69
2024/04/05 01:13:11;;;;;;;8.10;6.77;;;;;;;12.21;82.16;96232.44;4969354;28;21027;-69
2024/04/05 01:15:38;;;;;;;8.03;5.70;;;;;;;12.10;82.03;96240.91;4970913;28;20185;-70
2024/04/05 01:18:08;;;;;;;7.47;5.10;;;;;;;12.16;82.14;96245.84;4969978;28;20496;-69
2024/04/05 01:20:35;;;;;;;12.83;6.87;;;;;;;12.15;82.07;96245.94;4970166;28;21011;-69
2024/04/05 01:23:05;;;;;;;9.40;7.03;;;;;;;12.11;81.70;96233.88;4949731;28;20449;-68
2024/04/05 01:25:31;;;;;;;16.00;7.77;;;;;;;12.07;81.73;96233.16;4949335;29;21011;-69
2024/04/05 01:27:57;;;;;;;17.20;9.07;;;;;;;12.05;81.74;96229.78;4949460;29;20864;-70
2024/04/05 01:30:25;;;;;;;10.80;7.40;;;;;;;12.04;82.10;96236.81;4962665;28;20440;-69
2024/04/05 01:33:01;;;;;;;9.93;5.37;;;;;;;12.04;81.99;96236.81;4967472;28;20575;-69
2024/04/05 01:35:28;;;;;;;11.57;6.80;;;;;;;11.96;82.08;96238.16;4968582;28;20520;-69
2024/04/05 01:37:54;;;;;;;10.73;6.60;;;;;;;12.06;81.80;96242.00;4969168;28;20520;-70
2024/04/05 01:40:20;;;;;;;8.17;7.10;;;;;;;11.91;82.75;96227.03;4967352;28;20491;-69
2024/04/05 01:42:45;;;;;;;5.80;5.30;;;;;;;11.95;82.67;96231.19;4968500;28;20489;-69
2024/04/05 01:45:11;;;;;;;9.57;6.23;;;;;;;12.09;82.38;96236.56;4968725;28;20173;-69
2024/04/05 01:47:36;;;;;;;7.33;5.63;;;;;;;12.13;81.96;96226.75;4968396;28;20300;-69
2024/04/05 01:50:03;;;;;;;9.83;5.50;;;;;;;12.09;81.56;96228.66;4963392;28;20488;-70
2024/04/05 01:52:29;;;;;;;6.40;5.33;;;;;;;12.04;82.49;96225.44;4967821;28;20251;-70
2024/04/05 01:54:55;;;;;;;6.57;5.07;;;;;;;12.10;81.38;96221.66;4968251;28;20424;-69
2024/04/05 01:57:20;;;;;;;9.50;6.00;;;;;;;12.08;81.57;96227.81;4968268;28;20453;-69
2024/04/05 01:59:54;;;;;;;5.47;4.67;;;;;;;12.03;82.17;96215.88;4962829;28;20444;-68
2024/04/05 02:02:20;;;;;;;7.97;6.37;;;;;;;12.11;81.65;96225.97;4968455;28;20201;-69
2024/04/05 02:04:45;;;;;;;9.43;6.27;;;;;;;12.10;81.41;96216.41;4968874;28;20445;-70
2024/04/05 02:07:11;;;;;;;6.73;5.83;;;;;;;12.12;81.32;96209.25;4969029;28;20425;-69
2024/04/05 02:09:37;;;;;;;8.17;5.33;;;;;;;12.03;81.98;96213.22;4966691;28;20185;-70
2024/04/05 02:12:03;;;;;;;5.73;5.20;;;;;;;11.98;81.71;96204.75;4967698;28;20197;-70
2024/04/05 02:14:29;;;;;;;6.03;5.37;;;;;;;11.95;83.00;96212.78;4966694;28;20739;-70
2024/04/05 02:16:55;;;;;;;9.77;5.63;;;;;;;12.01;81.96;96204.56;4967377;28;20559;-70
2024/04/05 02:19:21;;;;;;;6.60;6.00;;;;;;;12.05;81.60;96191.19;4966174;28;20871;-69
2024/04/05 02:21:47;;;;;;;6.50;5.60;;;;;;;11.96;81.93;96199.56;4967594;28;20444;-68
2024/04/05 02:24:12;;;;;;;9.30;5.97;;;;;;;12.02;82.60;96201.00;4967876;28;20424;-70
2024/04/05 02:26:38;;;;;;;7.53;5.37;;;;;;;11.94;82.04;96198.78;4967809;28;20637;-69
2024/04/05 02:29:03;;;;;;;6.90;5.67;;;;;;;11.96;82.22;96189.03;4967241;28;20216;-70
2024/04/05 02:31:28;;;;;;;8.83;5.93;;;;;;;11.94;82.59;96198.78;4967253;28;20209;-70
2024/04/05 02:33:54;;;;;;;6.20;5.37;;;;;;;11.97;81.74;96200.41;4967244;28;20182;-68
2024/04/05 02:36:19;;;;;;;10.60;5.90;;;;;;;11.96;82.02;96196.91;4967748;28;20209;-68
2024/04/05 02:38:45;;;;;;;6.33;5.73;;;;;;;11.93;82.54;96198.84;4967269;28;20837;-68
2024/04/05 02:41:11;;;;;;;11.77;5.70;;;;;;;11.90;83.03;96207.75;4961801;28;20308;-69
2024/04/05 02:43:37;;;;;;;7.33;6.63;;;;;;;11.82;83.00;96205.50;4965669;28;21649;-70
2024/04/05 02:46:03;;;;;;;6.53;5.83;;;;;;;11.83;83.03;96208.97;4967496;28;20405;-68
2024/04/05 02:48:28;;;;;;;8.63;6.20;;;;;;;11.82;82.28;96208.13;4963320;28;20239;-68
2024/04/05 02:50:53;;;;;;;7.93;7.23;;;;;;;11.83;83.03;96211.59;4966983;28;20181;-69
2024/04/05 02:53:19;;;;;;;6.57;5.83;;;;;;;11.78;83.17;96213.63;4966951;28;20177;-69
2024/04/05 02:55:44;;;;;;;7.10;5.60;;;;;;;11.80;82.51;96214.41;4967103;28;20209;-70
2024/04/05 02:58:10;;;;;;;7.50;6.10;;;;;;;11.84;82.77;96211.53;4963114;28;20178;-69
2024/04/05 03:00:38;;;;;;;6.67;6.07;;;;;;;11.86;82.45;96222.81;4967033;28;20178;-69
2024/04/05 03:03:03;;;;;;;6.50;5.80;;;;;;;11.84;83.10;96210.69;4970161;28;20288;-69
2024/04/05 03:05:29;;;;;;;6.27;5.67;;;;;;;11.97;82.30;96203.88;4968607;28;20496;-70
2024/04/05 03:07:54;;;;;;;6.97;5.33;;;;;;;11.97;82.34;96206.50;4965799;28;20177;-69
2024/04/05 03:10:20;;;;;;;6.13;5.50;;;;;;;11.81;82.49;96208.19;4965586;28;20189;-70
2024/04/05 03:12:45;;;;;;;6.50;5.90;;;;;;;11.88;82.45;96211.38;4967679;28;20428;-68
2024/04/05 03:15:10;;;;;;;5.90;5.40;;;;;;;11.86;82.12;96207.03;4967990;28;20204;-66
2024/04/05 03:17:36;;;;;;;6.20;5.60;;;;;;;11.86;82.25;96203.56;4967748;28;20311;-69
2024/04/05 03:20:01;;;;;;;5.80;5.30;;;;;;;11.90;81.92;96205.13;4967143;28;20177;-70
2024/04/05 03:22:27;;;;;;;6.20;5.70;;;;;;;11.82;82.04;96207.28;4967486;28;20265;-69
2024/04/05 03:24:53;;;;;;;7.87;6.20;;;;;;;11.71;83.20;96199.09;4967923;28;20177;-70
2024/04/05 03:27:18;;;;;;;5.70;5.20;;;;;;;11.76;82.81;96207.59;4971076;28;20169;-70
2024/04/05 03:29:43;;;;;;;5.23;4.83;;;;;;;11.73;83.48;96213.84;4969090;28;20193;-70
2024/04/05 03:32:09;;;;;;;5.80;5.20;;;;;;;11.74;82.53;96210.31;4970657;28;20201;-70
2024/04/05 03:34:35;;;;;;;12.10;6.47;;;;;;;11.83;82.46;96208.97;4970916;28;20173;-69
2024/04/05 03:37:00;;;;;;;9.47;5.67;;;;;;;11.76;83.09;96203.16;4971135;28;20212;-70
2024/04/05 03:39:25;;;;;;;6.10;5.47;;;;;;;11.73;83.17;96207.75;4968712;28;20224;-67
2024/04/05 03:41:51;;;;;;;6.97;5.63;;;;;;;11.68;83.68;96207.16;4969113;28;20209;-68
2024/04/05 03:44:16;;;;;;;13.70;6.27;;;;;;;11.68;83.38;96202.72;4970422;28;20613;-70
2024/04/05 03:46:43;;;;;;;5.87;5.27;;;;;;;11.74;83.56;96198.94;4970329;28;20189;-69
2024/04/05 03:49:09;;;;;;;7.23;5.87;;;;;;;11.69;82.78;96201.78;4970252;28;20192;-70
2024/04/05 03:51:34;;;;;;;6.57;5.37;;;;;;;11.64;83.41;96194.13;4969001;28;20464;-71
2024/04/05 03:53:59;;;;;;;8.23;6.40;;;;;;;11.62;84.02;96196.03;4970243;28;20177;-68
2024/04/05 03:56:25;;;;;;;6.60;6.00;;;;;;;11.64;83.49;96196.75;4970191;28;20300;-70
2024/04/05 03:58:53;;;;;;;6.10;5.60;;;;;;;11.68;83.79;96194.00;4970106;28;20192;-68
2024/04/05 04:01:19;;;;;;;8.80;5.67;;;;;;;11.74;83.22;96199.81;4967419;28;20198;-69
2024/04/05 04:03:44;;;;;;;6.13;5.53;;;;;;;11.81;82.49;96203.81;4970303;28;20455;-69
2024/04/05 04:06:10;;;;;;;5.80;5.30;;;;;;;11.73;82.67;96216.47;4970378;28;20637;-70
2024/04/05 04:08:36;;;;;;;11.23;6.10;;;;;;;11.85;83.17;96213.22;4969991;28;20656;-69
2024/04/05 04:11:02;;;;;;;6.63;5.90;;;;;;;11.81;82.94;96203.81;4969312;28;20212;-69
2024/04/05 04:13:28;;;;;;;7.13;6.40;;;;;;;11.87;82.08;96210.56;4970080;28;20448;-69
2024/04/05 04:15:53;;;;;;;8.30;6.43;;;;;;;11.81;82.97;96203.81;4970780;28;20460;-69
2024/04/05 04:18:19;;;;;;;11.07;7.80;;;;;;;11.80;82.92;96207.34;4970823;28;20184;-69
2024/04/05 04:20:45;;;;;;;8.07;6.70;;;;;;;11.66;83.23;96202.81;4969187;28;20173;-68
2024/04/05 04:23:10;;;;;;;11.13;6.53;;;;;;;11.56;84.01;96203.38;4970245;28;20272;-69
2024/04/05 04:25:36;;;;;;;5.90;5.40;;;;;;;11.47;83.89;96195.94;4970218;28;20865;-70
2024/04/05 04:28:01;;;;;;;6.67;6.03;;;;;;;11.52;84.25;96189.50;4970796;28;20269;-69
2024/04/05 04:30:29;;;;;;;11.57;6.27;;;;;;;11.50;84.06;96188.75;4963973;28;20205;-69
2024/04/05 04:32:54;;;;;;;7.03;6.27;;;;;;;11.28;85.74;96196.03;4969660;28;20259;-69
2024/04/05 04:35:20;;;;;;;7.40;6.67;;;;;;;11.08;86.87;96199.63;4965133;28;20740;-69
2024/04/05 04:37:45;;;;;;;7.73;6.50;;;;;;;11.18;86.36;96196.47;4967234;28;20227;-69
2024/04/05 04:40:13;;;;;;;7.13;6.10;;;;;;;11.20;85.30;96194.63;4968867;28;20284;-68
2024/04/05 04:42:39;;;;;;;8.60;6.57;;;;;;;11.28;85.50;96186.34;4962169;28;20213;-71
2024/04/05 04:45:05;;;;;;;7.87;6.40;;;;;;;11.15;85.87;96191.38;4957494;28;21268;-71
2024/04/05 04:47:31;;;;;;;13.57;7.00;;;;;;;11.11;86.46;96191.59;4950948;28;20170;-69
2024/04/05 04:49:58;;;;;;;7.47;6.07;;;;;;;11.13;86.11;96190.59;4950951;28;20446;-67
2024/04/05 04:52:24;;;;;;;12.17;6.80;;;;;;;11.33;85.32;96197.47;4957611;28;20471;-69
2024/04/05 04:54:50;;;;;;;11.00;5.87;;;;;;;11.37;84.97;96198.19;4969357;28;20425;-68
2024/04/05 04:57:15;;;;;;;9.63;6.20;;;;;;;11.83;84.80;96198.44;4969785;28;20848;-68
2024/04/05 04:59:40;;;;;;;6.67;6.00;;;;;;;11.68;83.46;96202.72;4973793;28;20184;-68
2024/04/05 05:02:06;;;;;;;15.80;6.70;;;;;;;11.65;84.05;96201.13;4965215;28;20212;-69
2024/04/05 05:04:31;;;;;;;8.50;6.30;;;;;;;11.61;84.20;96202.19;4968148;28;20181;-69
2024/04/05 05:06:57;;;;;;;9.30;6.80;;;;;;;11.53;83.93;96204.38;4966915;28;20177;-69
2024/04/05 05:09:22;;;;;;;7.67;6.90;;;;;;;11.35;84.89;96206.13;4968208;28;20223;-70
2024/04/05 05:11:47;;;;;;;8.87;6.60;;;;;;;11.51;84.58;96203.59;4968608;28;20202;-69
2024/04/05 05:14:14;;;;;;;8.83;6.63;;;;;;;11.59;84.15;96193.53;4974551;28;20185;-70
2024/04/05 05:16:40;;;;;;;8.07;6.97;;;;;;;11.58;84.23;96199.72;4968545;28;20735;-70
2024/04/05 05:19:07;;;;;;;11.03;7.80;;;;;;;11.57;84.11;96212.94;4971398;28;20433;-72
2024/04/05 05:21:33;;;;;;;6.77;6.07;;;;;;;11.43;85.02;96205.75;4967276;28;20229;-72
2024/04/05 05:23:58;;;;;;;6.77;6.17;;;;;;;11.34;85.25;96206.19;4966764;28;20447;-71
2024/04/05 05:26:24;;;;;;;8.40;7.53;;;;;;;11.37;84.98;96216.59;4968036;28;20436;-70
2024/04/05 05:28:49;;;;;;;7.67;6.87;;;;;;;11.41;85.05;96220.75;4972124;28;20270;-71
2024/04/05 05:31:15;;;;;;;7.47;6.23;;;;;;;11.26;85.84;96219.72;4968404;28;20193;-71
2024/04/05 05:33:40;;;;;;;7.20;6.50;;;;;;;11.35;85.40;96219.28;4978943;28;20270;-67
2024/04/05 05:36:05;;;;;;;9.70;7.70;;;;;;;11.29;85.33;96213.47;4963940;28;20637;-69
2024/04/05 05:38:31;;;;;;;7.00;6.40;;;;;;;11.11;85.95;96210.84;4961625;28;20193;-69
2024/04/05 05:40:56;;;;;;;8.83;7.43;;;;;;;11.20;86.32;96220.91;4964130;28;20193;-70
2024/04/05 05:43:22;;;;;;;11.50;7.37;;;;;;;11.19;86.48;96213.06;4958204;28;20312;-71
2024/04/05 05:45:47;;;;;;;8.93;8.13;;;;;;;11.10;86.51;96214.41;4961959;28;20189;-71
2024/04/05 05:48:12;;;;;;;9.00;7.63;;;;;;;10.96;87.29;96215.06;4967889;28;20178;-70
2024/04/05 05:50:38;;;;;;;9.00;7.00;;;;;;;11.27;85.64;96221.44;4975705;28;20624;-70
2024/04/05 05:53:03;;;;;;;9.00;8.10;;;;;;;11.22;86.12;96219.03;4965985;28;20193;-70
2024/04/05 05:55:29;;;;;;;9.33;8.10;;;;;;;11.15;86.66;96227.28;4967845;28;20259;-70
2024/04/05 05:57:57;;;;;;;9.20;8.23;;;;;;;11.40;86.71;96233.03;4967005;28;20177;-69
2024/04/05 06:00:22;;;;;;;10.53;8.00;;;;;;;12.12;82.46;96228.53;4965468;28;20777;-70
2024/04/05 06:02:48;;;;;;;10.30;7.10;;;;;;;12.01;81.92;96221.19;4960133;28;20456;-70
2024/04/05 06:05:13;;;;;;;7.93;7.13;;;;;;;11.96;82.23;96223.22;4961157;28;20236;-71
2024/04/05 06:07:38;;;;;;;9.87;8.10;;;;;;;12.11;82.12;96229.44;4965678;28;20770;-71
2024/04/05 06:10:04;;;;;;;9.50;8.50;;;;;;;11.99;82.20;96236.19;4984494;28;20255;-71
2024/04/05 06:12:30;;;;;;;12.50;8.77;;;;;;;12.27;81.07;96232.13;4985308;28;20200;-70
2024/04/05 06:14:57;;;;;;;12.10;9.50;;;;;;;12.01;81.50;96234.34;4969166;28;20729;-70
2024/04/05 06:17:26;;;;;;;16.73;9.47;;;;;;;12.12;81.18;96232.91;4954406;28;20579;-70
2024/04/05 06:19:55;;;;;;;13.00;9.53;;;;;;;12.28;80.65;96234.69;4964197;28;20441;-71
2024/04/05 06:22:21;;;;;;;14.93;10.30;;;;;;;13.33;76.86;96221.88;4966527;28;20472;-71
2024/04/05 06:24:51;;;;;;;16.20;9.60;;;;;;;14.17;73.59;96229.22;4966523;28;20895;-70
2024/04/05 06:27:18;;;;;;;10.63;9.53;;;;;;;14.75;71.00;96230.03;4965922;28;20425;-72
2024/04/05 06:29:55;;;;;;;9.97;8.80;;;;;;;15.75;67.32;96225.38;4964945;28;20437;-70
2024/04/05 06:32:21;;;;;;;10.73;8.70;;;;;;;16.48;64.24;96214.16;4963061;28;20827;-71
2024/04/05 06:34:46;;;;;;;11.00;7.57;;;;;;;16.99;62.19;96211.44;4964829;28;20438;-71
2024/04/05 06:37:12;;;;;;;7.60;6.60;;;;;;;17.14;61.09;96212.09;4960894;28;20220;-71
2024/04/05 06:39:40;;;;;;;9.60;7.77;;;;;;;17.25;60.42;96220.13;4968341;28;20232;-70
2024/04/05 06:42:06;;;;;;;8.77;7.07;;;;;;;17.87;59.23;96210.25;4966744;28;20727;-70
2024/04/05 06:44:39;;;;;;;7.70;6.83;;;;;;;17.98;58.30;96213.78;4963547;28;20575;-70
2024/04/05 06:47:08;;;;;;;8.83;7.93;;;;;;;18.38;57.45;96218.69;4958827;28;20192;-70
2024/04/05 06:49:34;;;;;;;8.90;8.00;;;;;;;17.82;58.30;96215.91;4967287;28;20409;-71
2024/04/05 06:52:06;;;;;;;9.20;8.37;;;;;;;18.03;58.40;96220.56;4965652;28;20932;-70
2024/04/05 06:54:32;;;;;;;9.37;8.33;;;;;;;18.22;57.76;96220.84;4966821;28;20975;-71
2024/04/05 06:56:58;;;;;;;9.87;7.17;;;;;;;18.44;57.02;96221.81;4965383;28;20853;-71
2024/04/05 06:59:23;;;;;;;9.70;7.77;;;;;;;18.50;56.87;96216.88;4968012;28;20420;-71
2024/04/05 07:01:53;;;;;;;9.70;8.30;;;;;;;18.94;55.84;96212.50;4971854;28;20213;-70
2024/04/05 07:04:23;;;;;;;9.40;7.90;;;;;;;19.12;55.03;96212.84;4972140;28;20190;-71
2024/04/05 07:06:49;;;;;;;14.00;7.30;;;;;;;19.46;53.81;96212.72;4983423;28;20440;-73
2024/04/05 07:09:14;;;;;;;10.20;8.30;;;;;;;19.54;53.15;96204.97;4984044;28;20535;-70
2024/04/05 07:11:39;;;;;;;10.00;7.10;;;;;;;19.54;53.31;96201.47;4979120;28;20213;-71
2024/04/05 07:14:05;;;;;;;9.67;6.33;;;;;;;19.34;53.29;96203.94;4977420;28;20201;-71
2024/04/05 07:16:31;;;;;;;8.30;5.70;;;;;;;19.54;52.20;96202.31;4979325;28;20213;-69
2024/04/05 07:18:56;;;;;;;13.90;6.50;;;;;;;19.50;52.60;96200.88;4977520;28;20202;-70
2024/04/05 07:21:22;;;;;;;7.57;5.60;;;;;;;19.40;53.04;96198.13;4969276;28;20216;-72
2024/04/05 07:23:49;;;;;;;6.53;5.90;;;;;;;18.68;55.13;96201.25;4962658;28;20186;-71
2024/04/05 07:26:14;;;;;;;7.30;5.90;;;;;;;18.61;55.70;96202.72;4971323;28;20182;-71
2024/04/05 07:28:39;;;;;;;8.67;5.80;;;;;;;18.11;57.88;96188.94;4979078;28;20435;-72
2024/04/05 07:31:05;;;;;;;7.70;6.00;;;;;;;17.20;59.99;96197.56;4977298;28;20866;-72
2024/04/05 07:33:30;;;;;;;7.50;5.10;;;;;;;17.29;60.14;96194.22;4990537;28;20222;-73
2024/04/05 07:35:57;;;;;;;5.83;4.83;;;;;;;16.59;61.72;96197.50;4993358;28;20682;-72
2024/04/05 07:38:22;;;;;;;6.07;5.00;;;;;;;17.40;59.64;96186.31;4975776;28;20244;-70
2024/04/05 07:40:48;;;;;;;8.00;4.60;;;;;;;17.34;58.57;96200.03;4971425;28;20954;-71
2024/04/05 07:43:14;;;;;;;7.87;4.70;;;;;;;16.90;59.81;96198.84;4975052;28;20193;-71
2024/04/05 07:45:39;;;;;;;9.63;4.97;;;;;;;16.76;60.73;96199.78;4974297;28;20487;-70
2024/04/05 07:48:06;;;;;;;6.63;4.13;;;;;;;17.28;59.02;96193.38;4974457;28;20212;-71
2024/04/05 07:50:31;;;;;;;4.70;4.20;;;;;;;17.59;57.63;96206.16;4967763;28;20449;-70
2024/04/05 07:52:58;;;;;;;6.80;4.07;;;;;;;17.93;56.40;96204.50;5004664;28;20231;-71
2024/04/05 07:55:23;;;;;;;5.97;4.60;;;;;;;17.94;56.03;96207.00;4977761;28;20181;-72
2024/04/05 07:57:49;;;;;;;12.40;5.30;;;;;;;18.04;56.15;96211.63;4981023;28;20695;-71
2024/04/05 08:00:14;;;;;;;10.13;4.50;;;;;;;18.33;55.21;96212.88;4973915;28;20185;-70
2024/04/05 08:02:47;;;;;;;5.00;4.60;;;;;;;18.02;56.34;96213.53;4980461;28;20193;-70
2024/04/05 08:05:13;;;;;;;8.17;4.57;;;;;;;17.60;57.15;96213.16;4986428;28;20181;-72
2024/04/05 08:07:38;;;;;;;9.60;4.13;;;;;;;18.46;54.86;96206.59;4973278;28;20421;-71
2024/04/05 08:10:04;;;;;;;8.70;4.43;;;;;;;18.75;54.14;96205.13;4977344;28;20209;-71
2024/04/05 08:12:30;;;;;;;8.67;4.10;;;;;;;18.38;53.78;96210.72;4974768;28;20692;-71
2024/04/05 08:14:55;;;;;;;5.13;3.47;;;;;;;18.51;51.91;96215.91;4977260;28;20684;-72
2024/04/05 08:17:21;;;;;;;10.47;4.23;;;;;;;18.65;52.04;96217.47;4980439;28;20201;-71
2024/04/05 08:19:49;;;;;;;6.30;3.13;;;;;;;18.71;52.50;96219.66;4972940;28;20569;-70
2024/04/05 08:22:15;;;;;;;8.03;3.43;;;;;;;18.86;51.74;96225.59;4971970;28;20208;-73
2024/04/05 08:24:40;;;;;;;9.43;3.33;;;;;;;18.74;52.53;96224.72;4970920;28;20452;-70
2024/04/05 08:27:06;;;;;;;5.80;2.90;;;;;;;19.42;49.13;96228.13;4972359;28;20636;-70
2024/04/05 08:29:31;;;;;;;11.53;3.83;;;;;;;19.94;48.14;96212.31;4969378;28;20186;-70
2024/04/05 08:31:57;;;;;;;4.10;2.77;;;;;;;20.32;46.64;96210.88;4970137;28;20552;-70
2024/04/05 08:34:22;;;;;;;4.83;3.00;;;;;;;20.29;45.94;96208.44;4970218;28;20260;-73
2024/04/05 08:36:48;;;;;;;7.83;3.20;;;;;;;20.62;45.55;96207.41;4963638;28;20227;-73
2024/04/05 08:39:17;;;;;;;4.50;2.60;;;;;;;21.00;44.79;96199.63;4969673;28;20262;-70
2024/04/05 08:41:44;;;;;;;4.43;2.60;;;;;;;21.38;43.61;96195.34;4969393;28;20272;-71
2024/04/05 08:44:12;;;;;;;3.83;2.17;;;;;;;21.41;43.32;96198.63;4968120;28;20440;-71
2024/04/05 08:46:39;;;;;;;6.47;2.40;;;;;;;21.61;43.84;96188.78;4963244;28;20430;-69
2024/04/05 08:49:05;;;;;;;7.53;2.33;;;;;;;21.68;42.72;96184.56;4969540;28;20475;-74
2024/04/05 08:51:32;;;;;;;7.17;2.70;;;;;;;21.55;42.84;96184.88;4969495;28;20433;-70
2024/04/05 08:53:58;;;;;;;9.33;2.80;;;;;;;21.84;42.67;96193.84;4967488;28;20448;-71
2024/04/05 08:56:26;;;;;;;5.50;2.67;;;;;;;21.41;43.62;96189.78;4966120;28;20483;-69
2024/04/05 08:58:52;;;;;;;4.47;2.60;;;;;;;21.70;43.57;96193.28;4972639;28;20185;-68
2024/04/05 09:01:20;;;;;;;6.97;2.73;;;;;;;22.06;43.29;96188.19;4965264;28;20813;-69
2024/04/05 09:03:48;;;;;;;6.30;2.90;;;;;;;22.14;42.65;96190.16;4969090;28;20548;-68
2024/04/05 09:06:14;;;;;;;6.40;2.50;;;;;;;22.27;42.89;96187.19;4969308;28;20471;-70
2024/04/05 09:08:48;;;;;;;15.83;3.20;;;;;;;22.62;42.98;96194.53;4966533;28;20441;-67
2024/04/05 09:11:19;;;;;;;9.77;3.43;;;;;;;22.60;42.61;96194.66;4961553;28;20870;-68
2024/04/05 09:13:55;;;;;;;6.30;4.00;;;;;;;22.77;41.67;96184.19;4960129;28;20469;-70
2024/04/05 09:16:24;;;;;;;5.47;2.80;;;;;;;22.93;41.23;96186.22;4968408;28;20794;-68
2024/04/05 09:18:50;;;;;;;10.17;2.80;;;;;;;23.02;41.00;96175.50;4967346;28;20454;-68
2024/04/05 09:21:18;;;;;;;4.33;2.03;;;;;;;23.04;40.67;96170.00;4967609;28;20469;-69
2024/04/05 09:23:45;;;;;;;3.47;2.00;;;;;;;22.62;41.69;96183.84;4962438;28;20506;-69
2024/04/05 09:26:11;;;;;;;6.60;3.53;;;;;;;22.69;42.00;96178.75;4949129;28;20410;-67
2024/04/05 09:28:36;;;;;;;4.97;2.13;;;;;;;23.10;40.64;96189.97;4949238;28;20428;-71
2024/04/05 09:31:03;;;;;;;3.70;2.30;;;;;;;22.99;40.11;96183.84;4962821;28;20264;-69
2024/04/05 09:33:29;;;;;;;4.23;2.47;;;;;;;23.01;40.28;96181.03;4968177;28;20213;-70
2024/04/05 09:35:55;;;;;;;6.50;3.40;;;;;;;23.23;40.04;96177.91;4967972;28;20420;-69
2024/04/05 09:38:23;;;;;;;4.73;2.50;;;;;;;22.93;40.37;96176.34;4968328;28;20521;-70
2024/04/05 09:40:50;;;;;;;10.77;2.23;;;;;;;23.32;40.40;96173.47;4968678;28;21152;-69
2024/04/05 09:43:17;;;;;;;5.77;2.07;;;;;;;23.52;39.28;96167.97;4968172;28;20475;-68
2024/04/05 09:45:45;;;;;;;6.80;2.40;;;;;;;23.10;40.32;96165.88;4968963;28;21350;-70
2024/04/05 09:48:11;;;;;;;5.73;2.70;;;;;;;22.93;40.40;96171.00;4968336;28;20464;-68
2024/04/05 09:50:39;;;;;;;4.73;2.20;;;;;;;22.92;39.14;96168.50;4964245;28;20448;-67
2024/04/05 09:53:04;;;;;;;6.90;2.40;;;;;;;22.41;41.13;96166.16;4970533;28;20441;-69
2024/04/05 09:55:37;;;;;;;3.70;3.10;;;;;;;23.00;39.29;96164.09;4971998;28;20412;-70
2024/04/05 09:58:05;;;;;;;4.03;2.00;;;;;;;22.97;38.95;96161.69;4971101;28;20660;-72
2024/04/05 10:00:32;;;;;;;6.93;2.23;;;;;;;22.97;39.62;96166.22;4967454;28;20441;-73
2024/04/05 10:02:59;;;;;;;11.40;2.00;;;;;;;22.49;40.90;96165.47;4968662;28;20447;-70
2024/04/05 10:05:25;;;;;;;3.33;2.17;;;;;;;22.66;39.67;96169.19;4954584;28;20414;-69
2024/04/05 10:07:51;;;;;;;5.17;2.27;;;;;;;22.62;40.77;96173.13;4951417;28;20407;-71
2024/04/05 10:10:26;;;;;;;6.80;2.40;;;;;;;22.59;41.11;96176.13;4967641;28;20480;-71
2024/04/05 10:12:52;;;;;;;3.13;1.57;;;;;;;22.62;38.98;96165.94;4968090;28;20436;-69
2024/04/05 10:15:25;;;;;;;4.37;1.93;;;;;;;22.59;39.34;96174.28;4966284;28;20428;-70
2024/04/05 10:17:55;;;;;;;8.03;2.53;;;;;;;22.74;40.41;96165.75;4961194;28;20245;-70
2024/04/05 10:20:21;;;;;;;4.00;2.13;;;;;;;23.13;39.00;96160.25;4966625;28;20429;-71
2024/04/05 10:22:57;;;;;;;5.40;2.20;;;;;;;23.23;39.43;96148.44;4967090;28;20948;-72
2024/04/05 10:25:22;;;;;;;5.53;2.00;;;;;;;23.26;39.21;96155.34;4965506;28;20433;-70
2024/04/05 10:27:55;;;;;;;2.37;1.70;;;;;;;23.09;39.00;96150.81;4964614;28;20440;-70
2024/04/05 10:30:23;;;;;;;3.50;1.73;;;;;;;23.23;39.04;96144.94;4966903;28;20181;-70
2024/04/05 10:32:56;;;;;;;4.40;1.80;;;;;;;22.95;39.48;96150.28;4966238;28;20468;-70
2024/04/05 10:35:22;;;;;;;3.97;1.50;;;;;;;23.15;40.06;96132.31;4965159;28;21078;-70
2024/04/05 10:37:56;;;;;;;4.87;1.80;;;;;;;23.44;39.67;96118.69;4963808;28;20484;-69
2024/04/05 10:40:22;;;;;;;6.80;2.27;;;;;;;23.27;39.83;96124.03;4961594;28;20177;-68
2024/04/05 10:42:48;;;;;;;20.77;3.90;;;;;;;23.04;39.28;96125.34;4964585;28;20534;-68
2024/04/05 10:45:20;;;;;;;45.60;6.07;;;;;;;23.17;39.25;96125.00;4967324;28;20182;-69
2024/04/05 10:47:55;;;;;;;42.93;5.87;;;;;;;23.31;39.47;96130.78;4981497;28;21172;-68
2024/04/05 10:50:21;;;;;;;28.60;6.57;;;;;;;23.40;39.42;96124.50;4964793;28;20842;-67
2024/04/05 10:52:52;;;;;;;39.30;4.90;;;;;;;23.28;38.94;96123.91;4966989;28;20495;-69
2024/04/05 10:55:18;;;;;;;10.57;1.80;;;;;;;23.11;40.01;96120.22;4966603;28;20405;-67
2024/04/05 10:57:44;;;;;;;4.13;1.47;;;;;;;22.79;40.51;96112.66;4963943;28;20476;-69
2024/04/05 11:00:14;;;;;;;20.97;2.70;;;;;;;22.74;40.41;96107.75;4961840;28;20443;-69
2024/04/05 11:02:40;;;;;;;17.83;3.87;;;;;;;22.87;40.23;96101.19;4965923;28;20201;-68
2024/04/05 11:05:10;;;;;;;25.40;4.50;;;;;;;22.68;40.62;96099.47;4966464;28;20505;-69
2024/04/05 11:07:35;;;;;;;51.27;7.60;;;;;;;22.90;38.76;96088.38;4961560;28;20476;-67
2024/04/05 11:10:18;;;;;;;5.57;1.70;;;;;;;22.75;38.88;96084.53;4972936;28;20452;-69
2024/04/05 11:12:45;;;;;;;3.87;1.80;;;;;;;22.58;38.91;96087.03;4982532;28;20196;-68
2024/04/05 11:15:11;;;;;;;3.50;1.73;;;;;;;22.44;39.25;96074.16;4968319;28;20445;-69
2024/04/05 11:17:37;;;;;;;6.47;2.43;;;;;;;22.68;38.97;96072.72;4972402;28;21051;-68
2024/04/05 11:20:13;;;;;;;2.27;1.47;;;;;;;22.30;38.68;96083.50;4965489;28;20444;-68
2024/04/05 11:22:39;;;;;;;8.97;2.27;;;;;;;22.51;39.34;96083.25;4962754;28;20459;-68
2024/04/05 11:25:06;;;;;;;5.47;1.83;;;;;;;22.82;38.48;96072.25;4966504;28;20916;-67
2024/04/05 11:27:32;;;;;;;5.63;1.90;;;;;;;22.81;38.34;96059.84;4966666;28;20416;-69